AYE weather

Public forecast

Using degrees Fahrenheit for public forecast. Weather courtesy of forecast.io.

Closest aviation weather report (METAR) to Ft Devens Moore Army Air Field

Closest report is Fitchburg Municipal Airport, 7.0 nm (12.9 km) W. Retrieved 2020/08/10 07:52 UTC (12 minutes ago):

KFIT 100752Z AUTO 00000KT 10SM CLR 21/19 A3002 RMK AO2 SLP164 T02110189

Closest aviation forecast (TAF) to Ft Devens Moore Army Air Field

Closest forecast is Laurence G Hanscom Field, 15.1 nm (28.0 km) ESE. Retrieved 2020/08/10 06:30 UTC (2 hours ago):

TAF KBED 100528Z 1006/1106 22007KT P6SM FEW080 FM101500 24004KT P6SM FEW060 FM101700 25010KT P6SM VCSH BKN060 FM102100 25005KT P6SM SCT060